createdAt,value
2022-08-28T00:00:29.499Z,99.90
2022-08-28T00:02:57.596Z,99.90
2022-08-28T00:05:27.272Z,99.90
2022-08-28T00:07:55.113Z,99.90
2022-08-28T00:10:24.029Z,99.90
2022-08-28T00:12:55.615Z,99.90
2022-08-28T00:15:27.352Z,99.90
2022-08-28T00:17:54.414Z,99.90
2022-08-28T00:20:23.162Z,99.90
2022-08-28T00:22:51.481Z,99.80
2022-08-28T00:25:24.105Z,99.50
2022-08-28T00:27:57.296Z,99.40
2022-08-28T00:30:27.944Z,99.40
2022-08-28T00:32:56.831Z,99.10
2022-08-28T00:35:23.985Z,99.20
2022-08-28T00:37:51.950Z,99.10
2022-08-28T00:40:28.892Z,99.20
2022-08-28T00:43:01.498Z,99.20
2022-08-28T00:45:29.729Z,98.90
2022-08-28T00:47:56.678Z,98.60
2022-08-28T00:50:27.537Z,98.70
2022-08-28T00:52:57.445Z,98.30
2022-08-28T00:55:27.614Z,98.50
2022-08-28T00:57:58.993Z,98.10
2022-08-28T01:00:37.360Z,97.80
2022-08-28T01:03:05.931Z,97.70
2022-08-28T01:05:34.795Z,97.50
2022-08-28T01:08:04.365Z,97.50
2022-08-28T01:10:34.883Z,97.30
2022-08-28T01:13:02.568Z,96.90
2022-08-28T01:15:33.630Z,96.80
2022-08-28T01:18:08.236Z,96.90
2022-08-28T01:20:38.740Z,96.90
2022-08-28T01:23:15.081Z,96.70
2022-08-28T01:25:42.867Z,96.60
2022-08-28T01:28:12.951Z,96.30
2022-08-28T01:30:45.119Z,96.10
2022-08-28T01:33:14.476Z,96.40
2022-08-28T01:35:44.149Z,96.10
2022-08-28T01:38:11.369Z,95.80
2022-08-28T01:40:42.804Z,95.70
2022-08-28T01:43:13.851Z,95.60
2022-08-28T01:45:44.239Z,95.70
2022-08-28T01:48:12.895Z,95.90
2022-08-28T01:50:40.414Z,95.90
2022-08-28T01:53:07.910Z,96.00
2022-08-28T01:55:39.895Z,95.90
2022-08-28T01:58:08.488Z,95.80
2022-08-28T02:00:35.545Z,95.70
2022-08-28T02:03:03.099Z,95.70
2022-08-28T02:05:32.664Z,95.60
2022-08-28T02:08:01.194Z,95.60
2022-08-28T02:10:29.042Z,95.90
2022-08-28T02:12:59.064Z,95.80
2022-08-28T02:15:27.999Z,95.50
2022-08-28T02:17:55.912Z,95.60
2022-08-28T02:20:24.199Z,95.70
2022-08-28T02:22:51.930Z,95.60
2022-08-28T02:25:19.277Z,95.60
2022-08-28T02:27:46.127Z,95.70
2022-08-28T02:30:15.318Z,95.80
2022-08-28T02:32:42.259Z,95.60
2022-08-28T02:35:13.953Z,95.60
2022-08-28T02:37:42.474Z,95.70
2022-08-28T02:40:10.757Z,95.50
2022-08-28T02:42:37.585Z,95.50
2022-08-28T02:45:05.017Z,95.50
2022-08-28T02:47:31.900Z,95.60
2022-08-28T02:49:58.704Z,95.40
2022-08-28T02:52:25.524Z,95.40
2022-08-28T02:54:52.420Z,95.60
2022-08-28T02:57:19.593Z,95.60
2022-08-28T02:59:47.803Z,95.90
2022-08-28T03:02:14.634Z,95.90
2022-08-28T03:04:41.533Z,96.10
2022-08-28T03:07:09.976Z,96.20
2022-08-28T03:09:38.111Z,96.30
2022-08-28T03:12:05.134Z,96.40
2022-08-28T03:14:31.929Z,96.40
2022-08-28T03:16:58.870Z,96.50
2022-08-28T03:19:25.673Z,96.70
2022-08-28T03:21:54.508Z,97.00
2022-08-28T03:24:21.392Z,97.00
2022-08-28T03:26:48.255Z,97.00
2022-08-28T03:29:15.063Z,97.10
2022-08-28T03:31:41.863Z,97.20
2022-08-28T03:34:09.495Z,97.30
2022-08-28T03:36:36.557Z,97.40
2022-08-28T03:39:06.165Z,97.60
2022-08-28T03:41:34.015Z,97.70
2022-08-28T03:44:02.017Z,97.80
2022-08-28T03:46:32.734Z,97.90
2022-08-28T03:49:01.079Z,98.10
2022-08-28T03:51:31.663Z,97.90
2022-08-28T03:53:59.883Z,98.00
2022-08-28T03:56:28.633Z,98.00
2022-08-28T03:58:58.621Z,98.20
2022-08-28T04:01:26.003Z,98.20
2022-08-28T04:03:52.898Z,98.30
2022-08-28T04:06:20.108Z,98.20
2022-08-28T04:08:48.124Z,98.30
2022-08-28T04:11:15.193Z,98.30
2022-08-28T04:13:42.122Z,98.40
2022-08-28T04:16:11.851Z,98.20
2022-08-28T04:18:41.612Z,98.40
2022-08-28T04:21:11.868Z,98.70
2022-08-28T04:23:40.260Z,98.70
2022-08-28T04:26:07.787Z,98.80
2022-08-28T04:28:34.995Z,98.80
2022-08-28T04:31:02.570Z,98.90
2022-08-28T04:33:31.212Z,99.00
2022-08-28T04:36:01.938Z,99.10
2022-08-28T04:38:29.253Z,99.30
2022-08-28T04:40:56.103Z,99.30
2022-08-28T04:43:25.893Z,99.40
2022-08-28T04:45:53.273Z,99.40
2022-08-28T04:48:20.473Z,99.50
2022-08-28T04:50:49.058Z,99.70
2022-08-28T04:53:18.267Z,99.70
2022-08-28T04:55:54.465Z,99.90
2022-08-28T04:58:24.173Z,99.90
2022-08-28T05:00:53.211Z,99.90
2022-08-28T05:03:20.602Z,99.90
2022-08-28T05:05:53.324Z,99.90
2022-08-28T05:08:22.565Z,99.90
2022-08-28T05:10:50.789Z,99.90
2022-08-28T05:13:21.011Z,99.90
2022-08-28T05:15:50.901Z,99.90
2022-08-28T05:18:21.078Z,99.90
2022-08-28T05:20:48.847Z,99.90
2022-08-28T05:23:16.918Z,99.90
2022-08-28T05:25:46.653Z,99.90
2022-08-28T05:28:15.076Z,99.90
2022-08-28T05:30:43.434Z,99.90
2022-08-28T05:33:13.137Z,99.90
2022-08-28T05:35:43.843Z,99.90
2022-08-28T05:38:12.493Z,99.90
2022-08-28T05:40:45.117Z,99.90
2022-08-28T05:43:14.090Z,99.90
2022-08-28T05:45:41.430Z,99.90
2022-08-28T05:48:08.743Z,99.90
2022-08-28T05:50:38.762Z,99.90
2022-08-28T05:53:06.347Z,99.90
2022-08-28T05:55:33.282Z,99.90
2022-08-28T05:58:20.100Z,99.90
2022-08-28T06:00:46.939Z,99.90
2022-08-28T06:03:13.681Z,99.90
2022-08-28T06:05:40.443Z,99.90
2022-08-28T06:08:08.214Z,99.90
2022-08-28T06:10:37.111Z,99.90
2022-08-28T06:13:05.411Z,99.90
2022-08-28T06:15:32.167Z,99.90
2022-08-28T06:17:59.007Z,99.90
2022-08-28T06:20:25.908Z,99.90
2022-08-28T06:22:52.726Z,99.70
2022-08-28T06:25:19.483Z,99.10
2022-08-28T06:27:46.285Z,98.70
2022-08-28T06:30:13.249Z,99.30
2022-08-28T06:32:40.261Z,98.60
2022-08-28T06:35:07.881Z,98.10
2022-08-28T06:37:34.674Z,97.90
2022-08-28T06:40:01.600Z,97.50
2022-08-28T06:42:28.367Z,96.70
2022-08-28T06:44:55.117Z,96.20
2022-08-28T06:47:21.904Z,96.20
2022-08-28T06:49:48.762Z,96.30
2022-08-28T06:52:15.536Z,95.70
2022-08-28T06:54:55.354Z,95.80
2022-08-28T06:57:23.811Z,95.30
2022-08-28T06:59:50.564Z,95.20
2022-08-28T07:02:18.074Z,94.60
2022-08-28T07:04:45.505Z,94.70
2022-08-28T07:07:31.252Z,94.20
2022-08-28T07:09:58.769Z,94.10
2022-08-28T07:12:25.517Z,93.50
2022-08-28T07:14:52.866Z,93.20
2022-08-28T07:17:19.702Z,93.30
2022-08-28T07:19:46.932Z,93.10
2022-08-28T07:22:13.724Z,93.00
2022-08-28T07:24:40.573Z,93.20
2022-08-28T07:27:08.922Z,93.40
2022-08-28T07:29:35.715Z,93.30
2022-08-28T07:32:03.911Z,92.90
2022-08-28T07:34:31.129Z,93.30
2022-08-28T07:37:04.057Z,93.30
2022-08-28T07:39:30.870Z,93.40
2022-08-28T07:41:57.705Z,93.00
2022-08-28T07:44:43.706Z,92.50
2022-08-28T07:47:11.705Z,91.50
2022-08-28T07:49:40.572Z,91.50
2022-08-28T07:52:08.783Z,91.90
2022-08-28T07:54:36.221Z,92.00
2022-08-28T07:57:04.437Z,91.80
2022-08-28T07:59:37.031Z,91.20
2022-08-28T08:02:04.789Z,91.60
2022-08-28T08:04:31.593Z,91.90
2022-08-28T08:06:58.432Z,92.30
2022-08-28T08:09:26.439Z,92.80
2022-08-28T08:11:54.933Z,91.80
2022-08-28T08:14:21.978Z,91.30
2022-08-28T08:16:49.253Z,91.30
2022-08-28T08:19:16.883Z,91.40
2022-08-28T08:21:46.418Z,91.50
2022-08-28T08:24:19.434Z,91.70
2022-08-28T08:26:59.215Z,91.20
2022-08-28T08:29:31.316Z,91.40
2022-08-28T08:32:02.706Z,91.00
2022-08-28T08:34:29.535Z,91.10
2022-08-28T08:36:56.310Z,91.10
2022-08-28T08:39:23.212Z,90.80
2022-08-28T08:41:54.397Z,90.40
2022-08-28T08:44:28.075Z,90.80
2022-08-28T08:47:26.463Z,90.90
2022-08-28T08:49:57.538Z,90.90
2022-08-28T08:52:49.074Z,90.20
2022-08-28T08:55:31.980Z,88.20
2022-08-28T08:58:13.601Z,89.10
2022-08-28T09:00:56.392Z,88.10
2022-08-28T09:03:27.529Z,88.50
2022-08-28T09:05:59.985Z,88.80
2022-08-28T09:08:32.822Z,88.70
2022-08-28T09:11:25.433Z,87.30
2022-08-28T09:14:21.285Z,87.70
2022-08-28T09:16:55.780Z,88.00
2022-08-28T09:19:22.876Z,87.40
2022-08-28T09:21:51.838Z,88.20
2022-08-28T09:24:29.447Z,85.80
2022-08-28T09:27:08.944Z,87.20
2022-08-28T09:29:43.242Z,86.90
2022-08-28T09:32:38.616Z,87.70
2022-08-28T09:35:23.758Z,87.40
2022-08-28T09:37:50.999Z,87.90
2022-08-28T09:40:17.824Z,86.90
2022-08-28T09:43:25.070Z,86.80
2022-08-28T09:45:58.225Z,85.80
2022-08-28T09:48:36.436Z,86.10
2022-08-28T09:51:03.816Z,86.80
2022-08-28T09:53:34.424Z,88.10
2022-08-28T09:56:11.737Z,87.90
2022-08-28T09:58:54.694Z,87.20
2022-08-28T10:01:36.512Z,85.30
2022-08-28T10:04:28.089Z,86.00
2022-08-28T10:07:22.711Z,86.20
2022-08-28T10:10:13.591Z,86.20
2022-08-28T10:13:03.277Z,85.50
2022-08-28T10:15:51.388Z,84.70
2022-08-28T10:18:39.570Z,84.10
2022-08-28T10:21:13.989Z,83.70
2022-08-28T10:23:52.354Z,84.70
2022-08-28T10:26:31.114Z,85.70
2022-08-28T10:29:29.499Z,85.10
2022-08-28T10:32:14.528Z,84.40
2022-08-28T10:34:59.434Z,85.10
2022-08-28T10:37:26.349Z,85.40
2022-08-28T10:40:04.684Z,83.00
2022-08-28T10:42:43.456Z,82.80
2022-08-28T10:45:20.695Z,82.80
2022-08-28T10:47:54.543Z,82.90
2022-08-28T10:50:32.463Z,82.40
2022-08-28T10:53:15.916Z,82.50
2022-08-28T10:56:04.237Z,82.90
2022-08-28T10:58:35.722Z,83.20
2022-08-28T11:01:06.923Z,82.90
2022-08-28T11:03:46.379Z,82.60
2022-08-28T11:06:16.197Z,82.10
2022-08-28T11:08:52.854Z,80.90
2022-08-28T11:11:46.706Z,80.70
2022-08-28T11:14:47.122Z,81.20
2022-08-28T11:17:30.535Z,79.80
2022-08-28T11:20:09.513Z,79.20
2022-08-28T11:23:02.576Z,79.20
2022-08-28T11:25:43.145Z,79.10
2022-08-28T11:28:24.594Z,79.60
2022-08-28T11:31:06.586Z,79.00
2022-08-28T11:33:46.604Z,77.60
2022-08-28T11:36:21.874Z,76.60
2022-08-28T11:39:14.830Z,75.20
2022-08-28T11:42:06.374Z,74.60
2022-08-28T11:44:43.256Z,74.20
2022-08-28T11:47:41.913Z,73.60
2022-08-28T11:50:20.033Z,73.90
2022-08-28T11:52:52.880Z,73.80
2022-08-28T11:55:31.215Z,72.20
2022-08-28T11:58:15.979Z,71.80
2022-08-28T12:00:51.252Z,71.80
2022-08-28T12:03:27.558Z,71.90
2022-08-28T12:05:56.815Z,70.40
2022-08-28T12:08:45.446Z,68.80
2022-08-28T12:11:41.325Z,69.70
2022-08-28T12:14:13.154Z,69.40
2022-08-28T12:16:59.885Z,68.90
2022-08-28T12:19:55.401Z,68.10
2022-08-28T12:22:39.440Z,67.30
2022-08-28T12:25:15.277Z,66.80
2022-08-28T12:27:42.235Z,66.30
2022-08-28T12:30:09.383Z,65.30
2022-08-28T12:32:36.362Z,65.00
2022-08-28T12:35:03.149Z,64.60
2022-08-28T12:37:52.711Z,64.30
2022-08-28T12:40:27.690Z,63.60
2022-08-28T12:43:04.224Z,63.10
2022-08-28T12:45:36.405Z,62.00
2022-08-28T12:48:16.138Z,61.80
2022-08-28T12:50:43.177Z,61.50
2022-08-28T12:53:16.338Z,61.10
2022-08-28T12:55:45.821Z,60.70
2022-08-28T12:58:26.926Z,60.10
2022-08-28T13:00:57.696Z,58.20
2022-08-28T13:03:24.739Z,58.70
2022-08-28T13:06:04.781Z,59.60
2022-08-28T13:08:34.131Z,58.60
2022-08-28T13:11:01.504Z,58.30
2022-08-28T13:13:37.048Z,58.50
2022-08-28T13:16:07.889Z,57.60
2022-08-28T13:18:37.833Z,56.80
2022-08-28T13:21:30.755Z,57.30
2022-08-28T13:24:22.414Z,57.60
2022-08-28T13:27:00.625Z,56.50
2022-08-28T13:29:27.928Z,55.90
2022-08-28T13:32:07.824Z,55.10
2022-08-28T13:34:37.538Z,53.60
2022-08-28T13:37:20.115Z,53.80
2022-08-28T13:39:47.652Z,54.20
2022-08-28T13:42:16.754Z,54.00
2022-08-28T13:44:53.762Z,53.80
2022-08-28T13:47:20.531Z,53.40
2022-08-28T13:49:47.296Z,52.50
2022-08-28T13:52:14.659Z,52.20
2022-08-28T13:54:42.560Z,51.80
2022-08-28T13:57:13.404Z,51.90
2022-08-28T13:59:40.393Z,51.90
2022-08-28T14:02:29.689Z,52.00
2022-08-28T14:04:56.656Z,51.50
2022-08-28T14:07:23.646Z,50.60
2022-08-28T14:09:55.483Z,50.20
2022-08-28T14:12:32.701Z,49.50
2022-08-28T14:15:01.641Z,49.70
2022-08-28T14:17:28.857Z,49.10
2022-08-28T14:19:55.797Z,48.90
2022-08-28T14:22:22.589Z,49.10
2022-08-28T14:24:49.415Z,49.10
2022-08-28T14:27:16.194Z,48.90
2022-08-28T14:29:43.508Z,48.40
2022-08-28T14:32:10.605Z,49.50
2022-08-28T14:34:38.234Z,48.40
2022-08-28T14:37:06.309Z,48.00
2022-08-28T14:39:33.665Z,47.40
2022-08-28T14:42:01.613Z,47.40
2022-08-28T14:44:28.761Z,48.20
2022-08-28T14:46:57.168Z,47.20
2022-08-28T14:49:25.654Z,46.80
2022-08-28T14:51:54.102Z,46.50
2022-08-28T14:54:23.525Z,46.60
2022-08-28T14:56:51.638Z,45.90
2022-08-28T14:59:24.459Z,46.30
2022-08-28T15:01:52.881Z,45.70
2022-08-28T15:04:23.535Z,45.20
2022-08-28T15:06:55.339Z,44.70
2022-08-28T15:09:22.188Z,43.80
2022-08-28T15:11:48.959Z,44.10
2022-08-28T15:14:15.801Z,44.10
2022-08-28T15:16:46.448Z,44.30
2022-08-28T15:19:17.664Z,44.00
2022-08-28T15:21:51.131Z,43.80
2022-08-28T15:24:22.075Z,43.30
2022-08-28T15:26:49.071Z,42.70
2022-08-28T15:29:16.531Z,42.50
2022-08-28T15:31:46.459Z,42.60
2022-08-28T15:34:17.261Z,42.70
2022-08-28T15:36:45.383Z,42.40
2022-08-28T15:39:40.822Z,42.70
2022-08-28T15:42:15.893Z,42.80
2022-08-28T15:44:43.255Z,42.70
2022-08-28T15:47:10.456Z,42.70
2022-08-28T15:49:43.578Z,42.60
2022-08-28T15:52:15.825Z,42.70
2022-08-28T15:54:43.177Z,43.10
2022-08-28T15:57:10.006Z,43.10
2022-08-28T15:59:40.010Z,43.40
2022-08-28T16:02:19.451Z,43.20
2022-08-28T16:04:46.340Z,43.10
2022-08-28T16:07:13.497Z,43.60
2022-08-28T16:09:40.310Z,43.60
2022-08-28T16:12:07.198Z,43.40
2022-08-28T16:14:34.266Z,43.90
2022-08-28T16:17:05.656Z,44.20
2022-08-28T16:19:39.763Z,44.40
2022-08-28T16:22:07.977Z,44.30
2022-08-28T16:24:35.328Z,44.50
2022-08-28T16:27:02.310Z,44.90
2022-08-28T16:29:36.503Z,44.80
2022-08-28T16:32:09.207Z,45.10
2022-08-28T16:34:39.002Z,45.10
2022-08-28T16:37:07.961Z,44.40
2022-08-28T16:39:36.319Z,44.70
2022-08-28T16:42:04.007Z,44.90
2022-08-28T16:44:30.796Z,44.80
2022-08-28T16:46:57.911Z,44.70
2022-08-28T16:49:24.999Z,44.60
2022-08-28T16:51:51.889Z,44.40
2022-08-28T16:54:18.721Z,44.70
2022-08-28T16:56:46.302Z,45.00
2022-08-28T16:59:16.466Z,44.80
2022-08-28T17:01:43.470Z,44.90
2022-08-28T17:04:10.530Z,44.90
2022-08-28T17:06:37.319Z,44.50
2022-08-28T17:09:04.431Z,44.30
2022-08-28T17:11:31.239Z,44.00
2022-08-28T17:13:59.294Z,44.10
2022-08-28T17:16:30.129Z,44.00
2022-08-28T17:18:57.913Z,44.10
2022-08-28T17:21:43.404Z,44.40
2022-08-28T17:24:14.104Z,44.40
2022-08-28T17:26:41.609Z,44.10
2022-08-28T17:29:09.349Z,44.10
2022-08-28T17:31:36.585Z,43.90
2022-08-28T17:34:03.509Z,43.90
2022-08-28T17:36:33.049Z,43.90
2022-08-28T17:39:08.010Z,43.80
2022-08-28T17:41:35.038Z,43.60
2022-08-28T17:44:02.703Z,43.80
2022-08-28T17:46:31.868Z,43.80
2022-08-28T17:49:03.415Z,43.80
2022-08-28T17:51:42.062Z,43.70
2022-08-28T17:54:15.448Z,43.70
2022-08-28T17:56:42.754Z,43.50
2022-08-28T17:59:11.440Z,43.70
2022-08-28T18:01:39.141Z,43.90
2022-08-28T18:04:06.454Z,44.00
2022-08-28T18:06:33.665Z,44.30
2022-08-28T18:09:00.629Z,44.50
2022-08-28T18:11:28.226Z,44.60
2022-08-28T18:13:55.121Z,44.80
2022-08-28T18:16:22.116Z,45.00
2022-08-28T18:18:48.900Z,45.10
2022-08-28T18:21:15.717Z,45.20
2022-08-28T18:23:42.566Z,45.50
2022-08-28T18:26:09.732Z,45.70
2022-08-28T18:28:37.176Z,45.70
2022-08-28T18:31:06.644Z,45.90
2022-08-28T18:33:34.473Z,46.00
2022-08-28T18:36:01.974Z,46.10
2022-08-28T18:38:29.758Z,46.30
2022-08-28T18:40:59.666Z,46.60
2022-08-28T18:43:26.591Z,46.80
2022-08-28T18:45:53.719Z,46.90
2022-08-28T18:48:21.420Z,47.10
2022-08-28T18:50:48.406Z,47.40
2022-08-28T18:53:16.451Z,47.60
2022-08-28T18:55:43.393Z,47.80
2022-08-28T18:58:11.906Z,47.90
2022-08-28T19:00:42.479Z,48.10
2022-08-28T19:03:09.773Z,48.30
2022-08-28T19:05:38.551Z,48.60
2022-08-28T19:08:05.963Z,48.70
2022-08-28T19:10:34.848Z,48.90
2022-08-28T19:13:03.125Z,49.20
2022-08-28T19:15:32.928Z,49.30
2022-08-28T19:18:01.419Z,49.60
2022-08-28T19:20:29.738Z,49.70
2022-08-28T19:22:57.987Z,49.70
2022-08-28T19:25:28.441Z,50.10
2022-08-28T19:27:59.091Z,50.20
2022-08-28T19:30:28.025Z,50.40
2022-08-28T19:32:55.193Z,50.70
2022-08-28T19:35:24.471Z,50.80
2022-08-28T19:37:53.084Z,50.90
2022-08-28T19:40:21.356Z,51.10
2022-08-28T19:42:49.805Z,51.30
2022-08-28T19:45:17.918Z,51.60
2022-08-28T19:47:45.674Z,51.90
2022-08-28T19:50:14.609Z,52.10
2022-08-28T19:52:43.490Z,52.50
2022-08-28T19:55:17.643Z,52.50
2022-08-28T19:57:46.769Z,53.00
2022-08-28T20:00:17.624Z,53.20
2022-08-28T20:02:45.110Z,53.20
2022-08-28T20:05:12.250Z,54.80
2022-08-28T20:07:39.257Z,53.50
2022-08-28T20:10:07.283Z,54.00
2022-08-28T20:12:34.583Z,54.00
2022-08-28T20:15:03.756Z,54.10
2022-08-28T20:17:31.036Z,54.30
2022-08-28T20:20:03.056Z,54.70
2022-08-28T20:22:31.806Z,55.00
2022-08-28T20:24:59.337Z,55.30
2022-08-28T20:27:26.613Z,55.30
2022-08-28T20:29:53.482Z,55.50
2022-08-28T20:32:20.278Z,55.20
2022-08-28T20:34:47.066Z,55.70
2022-08-28T20:37:14.142Z,56.20
2022-08-28T20:39:41.677Z,56.50
2022-08-28T20:42:09.407Z,56.10
2022-08-28T20:44:36.676Z,56.70
2022-08-28T20:47:04.197Z,56.60
2022-08-28T20:49:31.087Z,56.90
2022-08-28T20:52:00.933Z,56.50
2022-08-28T20:54:39.107Z,57.00
2022-08-28T20:57:09.160Z,57.50
2022-08-28T20:59:40.190Z,57.90
2022-08-28T21:02:13.355Z,58.00
2022-08-28T21:04:41.745Z,58.30
2022-08-28T21:07:09.797Z,58.40
2022-08-28T21:10:02.243Z,58.50
2022-08-28T21:12:24.627Z,58.70
2022-08-28T21:14:52.759Z,58.40
2022-08-28T21:17:29.157Z,59.10
2022-08-28T21:20:09.367Z,58.90
2022-08-28T21:22:38.228Z,58.80
2022-08-28T21:25:07.998Z,58.70
2022-08-28T21:27:35.677Z,58.70
2022-08-28T21:30:04.179Z,58.70
2022-08-28T21:32:33.817Z,59.40
2022-08-28T21:35:02.259Z,59.60
2022-08-28T21:37:29.166Z,59.70
2022-08-28T21:39:58.625Z,60.00
2022-08-28T21:42:26.069Z,60.10
2022-08-28T21:44:54.489Z,60.00
2022-08-28T21:47:23.063Z,60.00
2022-08-28T21:49:51.351Z,60.00
2022-08-28T21:52:19.845Z,60.00
2022-08-28T21:54:46.681Z,60.30
2022-08-28T21:57:13.952Z,60.60
2022-08-28T21:59:41.195Z,60.60
2022-08-28T22:02:08.127Z,60.70
2022-08-28T22:04:35.565Z,60.80
2022-08-28T22:07:02.440Z,60.90
2022-08-28T22:09:29.452Z,61.20
2022-08-28T22:11:56.293Z,61.30
2022-08-28T22:14:25.083Z,61.30
2022-08-28T22:16:52.201Z,61.50
2022-08-28T22:19:19.095Z,61.40
2022-08-28T22:22:04.561Z,62.70
2022-08-28T22:24:31.399Z,61.60
2022-08-28T22:26:58.241Z,62.10
2022-08-28T22:29:25.576Z,62.10
2022-08-28T22:31:52.879Z,62.00
2022-08-28T22:34:19.771Z,62.40
2022-08-28T22:36:46.984Z,63.00
2022-08-28T22:39:14.113Z,63.60
2022-08-28T22:41:42.114Z,64.00
2022-08-28T22:44:09.859Z,64.30
2022-08-28T22:46:36.652Z,64.70
2022-08-28T22:49:04.232Z,65.10
2022-08-28T22:51:34.361Z,65.10
2022-08-28T22:54:01.426Z,65.50
2022-08-28T22:56:28.329Z,65.90
2022-08-28T22:58:55.094Z,66.10
2022-08-28T23:01:24.952Z,66.70
2022-08-28T23:03:52.461Z,66.60
2022-08-28T23:06:21.396Z,67.90
2022-08-28T23:08:48.331Z,66.60
2022-08-28T23:11:15.156Z,66.90
2022-08-28T23:13:42.334Z,67.40
2022-08-28T23:16:09.425Z,67.60
2022-08-28T23:19:06.145Z,67.90
2022-08-28T23:21:26.409Z,68.10
2022-08-28T23:23:54.952Z,68.40
2022-08-28T23:26:22.210Z,68.40
2022-08-28T23:28:49.013Z,68.60
2022-08-28T23:31:15.860Z,68.70
2022-08-28T23:33:43.007Z,69.00
2022-08-28T23:36:10.379Z,69.10
2022-08-28T23:38:42.826Z,69.20
2022-08-28T23:41:11.043Z,69.30
2022-08-28T23:43:38.209Z,69.60
2022-08-28T23:46:05.483Z,69.70
2022-08-28T23:48:32.842Z,69.70
2022-08-28T23:50:59.980Z,70.30
2022-08-28T23:53:27.474Z,70.90
2022-08-28T23:55:54.598Z,71.00
2022-08-28T23:58:22.371Z,71.00
